Airport ICAO


14:47 UTC

29°C

Clear skies


An affordable passengers' Moving Map for your aircraft. Made for the iPad and the iPhone
More information here

LFLN


Saint Yan FRANCE   VFR CAVOK


METAR LFLN 231430Z AUTO 26013KT 230V300 CAVOK 29/15 Q1017 TEMPO 27015G30KT 0h17min

TAF LFLN 231400Z 2315/2324 26012KT 9999 BKN030 TEMPO 2315/2318 27015G30KT BECMG 2317/2319 -RA OVC020 TEMPO 2318/2321 34020G35KT 0h47min





NOTAMS

OPEN